Time;durP1;ratioP1;P1;durP2;ratioP2;P2;SDS_P1;SDS_P2;PMS_P1;PMS_P2;Temp;Humidity;BMP_temperature;BMP_pressure;BME280_temperature;BME280_humidity;BME280_pressure;Samples;Min_cycle;Max_cycle;Signal;HPM_P1;HPM_P2
2021/08/09 00:00:13;;;;;;;2.60;1.70;;;;;;;;;;5033825;28;20819;-56
2021/08/09 00:02:42;;;;;;;5.07;2.00;;;;;;;;;;5033709;28;20453;-57
2021/08/09 00:05:10;;;;;;;3.67;1.90;;;;;;;;;;5033781;28;20448;-56
2021/08/09 00:07:37;;;;;;;1.90;1.70;;;;;;;;;;5033556;28;20461;-56
2021/08/09 00:10:05;;;;;;;5.53;2.30;;;;;;;;;;5033601;28;20436;-56
2021/08/09 00:12:32;;;;;;;3.30;2.10;;;;;;;;;;5033576;28;20440;-57
2021/08/09 00:14:59;;;;;;;2.57;1.80;;;;;;;;;;5033253;28;20976;-56
2021/08/09 00:17:27;;;;;;;2.00;1.60;;;;;;;;;;5033614;28;20468;-56
2021/08/09 00:19:55;;;;;;;1.70;1.60;;;;;;;;;;5033271;28;20453;-56
2021/08/09 00:22:23;;;;;;;2.33;1.70;;;;;;;;;;5033476;28;20449;-56
2021/08/09 00:24:50;;;;;;;2.50;2.13;;;;;;;;;;5036913;28;20456;-56
2021/08/09 00:27:17;;;;;;;2.80;1.70;;;;;;;;;;5037443;28;20461;-57
2021/08/09 00:29:44;;;;;;;3.03;2.07;;;;;;;;;;5037388;28;20449;-56
2021/08/09 00:32:12;;;;;;;4.80;2.60;;;;;;;;;;5037202;28;20444;-57
2021/08/09 00:34:39;;;;;;;4.47;1.97;;;;;;;;;;5037003;28;20480;-57
2021/08/09 00:37:07;;;;;;;2.23;1.60;;;;;;;;;;5037015;28;20592;-56
2021/08/09 00:39:35;;;;;;;2.00;1.40;;;;;;;;;;5037011;28;20510;-57
2021/08/09 00:42:02;;;;;;;4.13;1.90;;;;;;;;;;5037052;28;20857;-55
2021/08/09 00:44:29;;;;;;;3.10;1.93;;;;;;;;;;5037395;28;20502;-57
2021/08/09 00:46:57;;;;;;;2.33;1.83;;;;;;;;;;5037053;28;20472;-56
2021/08/09 00:49:24;;;;;;;1.73;1.63;;;;;;;;;;5036922;28;20445;-57
2021/08/09 00:51:52;;;;;;;3.50;2.00;;;;;;;;;;5037039;28;20455;-56
2021/08/09 00:54:21;;;;;;;2.10;1.87;;;;;;;;;;5036809;28;21011;-57
2021/08/09 00:56:48;;;;;;;2.63;1.67;;;;;;;;;;5036660;28;21012;-57
2021/08/09 00:59:16;;;;;;;1.93;1.77;;;;;;;;;;5037826;28;20448;-57
2021/08/09 01:01:43;;;;;;;3.50;1.83;;;;;;;;;;5037355;28;20448;-56
2021/08/09 01:04:10;;;;;;;5.37;2.60;;;;;;;;;;5036736;28;20440;-56
2021/08/09 01:06:38;;;;;;;2.10;1.83;;;;;;;;;;5036244;28;20475;-55
2021/08/09 01:09:08;;;;;;;2.80;1.73;;;;;;;;;;5036725;28;20449;-55
2021/08/09 01:11:43;;;;;;;1.97;1.70;;;;;;;;;;5036370;28;20506;-55
2021/08/09 01:14:14;;;;;;;3.57;2.27;;;;;;;;;;5036362;28;20461;-55
2021/08/09 01:16:43;;;;;;;6.00;2.10;;;;;;;;;;5036047;28;20465;-55
2021/08/09 01:19:17;;;;;;;2.03;1.40;;;;;;;;;;5036339;28;20506;-56
2021/08/09 01:21:45;;;;;;;3.10;2.30;;;;;;;;;;5035939;28;20515;-55
2021/08/09 01:24:15;;;;;;;2.93;2.30;;;;;;;;;;5036315;28;20532;-55
2021/08/09 01:26:48;;;;;;;3.93;2.10;;;;;;;;;;5036099;28;20519;-56
2021/08/09 01:29:19;;;;;;;3.87;2.20;;;;;;;;;;5036089;28;20500;-55
2021/08/09 01:31:48;;;;;;;3.80;2.30;;;;;;;;;;5035751;28;20484;-55
2021/08/09 01:34:16;;;;;;;3.37;2.20;;;;;;;;;;5035925;28;20573;-56
2021/08/09 01:36:45;;;;;;;2.40;1.93;;;;;;;;;;5035155;28;20480;-56
2021/08/09 01:39:13;;;;;;;2.27;1.90;;;;;;;;;;5036091;28;20501;-55
2021/08/09 01:41:41;;;;;;;3.90;2.13;;;;;;;;;;5035708;28;20503;-55
2021/08/09 01:44:08;;;;;;;3.03;1.70;;;;;;;;;;5036185;28;20445;-57
2021/08/09 01:46:37;;;;;;;2.60;1.83;;;;;;;;;;5036559;28;20468;-57
2021/08/09 01:49:06;;;;;;;2.17;1.97;;;;;;;;;;5035869;28;20995;-56
2021/08/09 01:51:34;;;;;;;4.00;1.77;;;;;;;;;;5035977;28;20445;-56
2021/08/09 01:54:02;;;;;;;4.80;2.10;;;;;;;;;;5035299;28;20481;-56
2021/08/09 01:56:29;;;;;;;4.10;2.13;;;;;;;;;;5035424;28;20465;-56
2021/08/09 01:58:56;;;;;;;2.10;1.67;;;;;;;;;;5035458;28;20448;-56
2021/08/09 02:01:24;;;;;;;3.03;1.93;;;;;;;;;;5035435;28;20452;-55
2021/08/09 02:03:52;;;;;;;3.17;2.13;;;;;;;;;;5035747;28;20441;-56
2021/08/09 02:06:20;;;;;;;7.30;2.23;;;;;;;;;;5035351;28;20976;-55
2021/08/09 02:08:47;;;;;;;2.60;2.13;;;;;;;;;;5035286;28;20986;-56
2021/08/09 02:11:15;;;;;;;3.83;2.47;;;;;;;;;;5035529;28;20441;-56
2021/08/09 02:13:46;;;;;;;4.33;2.33;;;;;;;;;;5035539;28;20570;-56
2021/08/09 02:16:14;;;;;;;2.13;1.90;;;;;;;;;;5035345;28;20465;-57
2021/08/09 02:18:45;;;;;;;3.70;2.20;;;;;;;;;;5035064;28;20449;-56
2021/08/09 02:21:16;;;;;;;2.40;2.20;;;;;;;;;;5035089;28;20956;-56
2021/08/09 02:23:46;;;;;;;6.53;2.87;;;;;;;;;;5036506;28;20824;-56
2021/08/09 02:26:16;;;;;;;5.10;2.10;;;;;;;;;;5035361;28;20840;-57
2021/08/09 02:28:46;;;;;;;3.60;2.30;;;;;;;;;;5036253;28;20446;-56
2021/08/09 02:31:14;;;;;;;4.50;2.27;;;;;;;;;;5035236;28;20499;-56
2021/08/09 02:33:41;;;;;;;3.27;2.27;;;;;;;;;;5035619;28;20485;-56
2021/08/09 02:36:09;;;;;;;4.40;2.10;;;;;;;;;;5035445;28;20477;-55
2021/08/09 02:38:38;;;;;;;3.63;2.43;;;;;;;;;;5035257;28;20441;-55
2021/08/09 02:41:05;;;;;;;2.77;2.47;;;;;;;;;;5035048;28;21022;-56
2021/08/09 02:43:33;;;;;;;4.07;2.80;;;;;;;;;;5035358;28;20445;-56
2021/08/09 02:46:01;;;;;;;4.60;2.40;;;;;;;;;;5035421;28;20465;-57
2021/08/09 02:48:29;;;;;;;3.50;2.07;;;;;;;;;;5033996;28;20949;-55
2021/08/09 02:50:56;;;;;;;2.73;2.53;;;;;;;;;;5034782;28;20449;-56
2021/08/09 02:53:24;;;;;;;3.20;2.40;;;;;;;;;;5034877;28;20441;-56
2021/08/09 02:55:55;;;;;;;3.83;2.70;;;;;;;;;;5034837;28;20831;-56
2021/08/09 02:58:23;;;;;;;3.60;2.47;;;;;;;;;;5034428;28;20483;-56
2021/08/09 03:00:50;;;;;;;4.40;2.00;;;;;;;;;;5034648;28;20926;-56
2021/08/09 03:03:20;;;;;;;3.23;2.23;;;;;;;;;;5034748;28;20441;-55
2021/08/09 03:05:47;;;;;;;3.80;2.50;;;;;;;;;;5034384;28;20472;-56
2021/08/09 03:08:14;;;;;;;2.93;2.57;;;;;;;;;;5034038;28;20503;-56
2021/08/09 03:10:42;;;;;;;4.03;2.03;;;;;;;;;;5033987;28;20507;-56
2021/08/09 03:13:12;;;;;;;3.27;2.50;;;;;;;;;;5034466;28;20503;-56
2021/08/09 03:15:41;;;;;;;4.10;2.33;;;;;;;;;;5034185;28;20890;-56
2021/08/09 03:18:09;;;;;;;4.27;2.30;;;;;;;;;;5033812;28;20492;-56
2021/08/09 03:20:36;;;;;;;2.93;1.97;;;;;;;;;;5034025;28;20864;-56
2021/08/09 03:23:03;;;;;;;3.60;2.70;;;;;;;;;;5033744;28;20456;-56
2021/08/09 03:25:31;;;;;;;3.00;2.50;;;;;;;;;;5033540;28;20495;-57
2021/08/09 03:27:59;;;;;;;5.40;2.60;;;;;;;;;;5033807;28;20499;-55
2021/08/09 03:30:27;;;;;;;3.83;2.73;;;;;;;;;;5033593;28;21045;-56
2021/08/09 03:32:55;;;;;;;4.17;2.23;;;;;;;;;;5033496;28;20535;-56
2021/08/09 03:35:22;;;;;;;4.13;2.40;;;;;;;;;;5033397;28;21043;-57
2021/08/09 03:37:50;;;;;;;4.23;2.30;;;;;;;;;;5057942;22;20558;-58
2021/08/09 03:40:17;;;;;;;5.40;2.80;;;;;;;;;;5033448;28;20502;-59
2021/08/09 03:42:44;;;;;;;3.33;2.80;;;;;;;;;;5033700;28;20445;-57
2021/08/09 03:45:12;;;;;;;4.00;2.30;;;;;;;;;;5033657;28;20445;-58
2021/08/09 03:47:40;;;;;;;4.93;2.73;;;;;;;;;;5033580;28;20468;-58
2021/08/09 03:50:08;;;;;;;4.40;3.47;;;;;;;;;;5033312;28;20445;-60
2021/08/09 03:52:35;;;;;;;3.90;2.67;;;;;;;;;;5033481;28;20498;-59
2021/08/09 03:55:02;;;;;;;5.13;2.50;;;;;;;;;;5033468;28;20472;-59
2021/08/09 03:57:30;;;;;;;4.23;2.23;;;;;;;;;;5033436;28;20535;-59
2021/08/09 03:59:57;;;;;;;3.93;2.40;;;;;;;;;;5032912;28;20445;-59
2021/08/09 04:02:30;;;;;;;6.00;2.43;;;;;;;;;;5033298;28;20444;-58
2021/08/09 04:08:27;;;;;;;6.57;2.90;;;;;;;;;;5111963;27;21055;-60
2021/08/09 04:10:54;;;;;;;4.10;2.03;;;;;;;;;;5111364;28;20448;-60
2021/08/09 04:13:22;;;;;;;3.37;2.20;;;;;;;;;;5111626;28;20503;-60
2021/08/09 04:15:49;;;;;;;4.30;2.63;;;;;;;;;;5115688;28;20449;-59
2021/08/09 04:18:16;;;;;;;4.37;2.70;;;;;;;;;;5121496;28;20458;-57
2021/08/09 04:20:43;;;;;;;3.70;2.47;;;;;;;;;;5116140;28;20933;-59
2021/08/09 04:23:11;;;;;;;4.73;2.70;;;;;;;;;;5121505;28;20491;-60
2021/08/09 04:25:39;;;;;;;3.90;2.70;;;;;;;;;;5120919;28;20495;-59
2021/08/09 04:28:07;;;;;;;4.13;2.77;;;;;;;;;;5110972;28;20550;-60
2021/08/09 04:30:34;;;;;;;3.83;2.77;;;;;;;;;;5111055;28;20442;-59
2021/08/09 04:33:03;;;;;;;2.23;2.03;;;;;;;;;;5111012;28;20856;-60
2021/08/09 04:35:31;;;;;;;4.90;2.63;;;;;;;;;;5110607;28;20977;-60
2021/08/09 04:37:58;;;;;;;3.33;2.90;;;;;;;;;;5110604;28;20457;-59
2021/08/09 04:40:25;;;;;;;4.87;2.70;;;;;;;;;;5110775;28;20441;-59
2021/08/09 04:42:54;;;;;;;3.10;2.30;;;;;;;;;;5110587;28;20515;-58
2021/08/09 04:45:21;;;;;;;5.00;2.50;;;;;;;;;;5110753;28;20441;-60
2021/08/09 04:47:49;;;;;;;3.60;2.20;;;;;;;;;;5110606;28;20558;-59
2021/08/09 04:50:16;;;;;;;5.23;2.73;;;;;;;;;;5111007;28;20478;-60
2021/08/09 04:52:43;;;;;;;4.10;2.70;;;;;;;;;;5110798;28;20445;-59
2021/08/09 04:55:11;;;;;;;5.20;2.77;;;;;;;;;;5110536;28;20442;-59
2021/08/09 04:57:38;;;;;;;4.87;2.70;;;;;;;;;;5110445;28;20541;-60
2021/08/09 05:00:08;;;;;;;3.33;2.23;;;;;;;;;;5110079;28;20441;-60
2021/08/09 05:02:37;;;;;;;2.93;2.63;;;;;;;;;;5109975;28;20437;-58
2021/08/09 05:05:04;;;;;;;2.67;2.20;;;;;;;;;;5110417;28;20442;-60
2021/08/09 05:07:32;;;;;;;4.93;2.50;;;;;;;;;;5110433;28;20539;-59
2021/08/09 05:09:59;;;;;;;3.20;2.90;;;;;;;;;;5110467;28;20445;-60
2021/08/09 05:12:26;;;;;;;4.07;2.17;;;;;;;;;;5110243;28;20446;-59
2021/08/09 05:14:54;;;;;;;2.57;2.20;;;;;;;;;;5110012;28;20499;-59
2021/08/09 05:17:22;;;;;;;5.43;3.00;;;;;;;;;;5109461;28;20982;-60
2021/08/09 05:19:50;;;;;;;4.37;2.73;;;;;;;;;;5096571;28;20446;-59
2021/08/09 05:22:17;;;;;;;3.20;2.40;;;;;;;;;;5096649;28;20453;-58
2021/08/09 05:24:44;;;;;;;4.40;2.53;;;;;;;;;;5096295;28;20934;-60
2021/08/09 05:27:12;;;;;;;3.37;2.60;;;;;;;;;;5096010;28;20474;-59
2021/08/09 05:29:39;;;;;;;2.40;2.20;;;;;;;;;;5096190;28;20482;-59
2021/08/09 05:32:07;;;;;;;4.23;2.57;;;;;;;;;;5096707;28;20451;-57
2021/08/09 05:34:36;;;;;;;8.07;3.37;;;;;;;;;;5096491;28;20496;-59
2021/08/09 05:37:03;;;;;;;3.37;3.00;;;;;;;;;;5097501;28;20473;-59
2021/08/09 05:39:30;;;;;;;3.87;2.53;;;;;;;;;;5096034;28;20446;-58
2021/08/09 05:41:58;;;;;;;5.80;2.73;;;;;;;;;;5096378;28;20980;-60
2021/08/09 05:44:25;;;;;;;5.20;2.80;;;;;;;;;;5096778;28;20449;-59
2021/08/09 05:46:52;;;;;;;5.20;3.37;;;;;;;;;;5096776;28;20486;-58
2021/08/09 05:49:19;;;;;;;2.73;2.53;;;;;;;;;;5096358;28;20433;-58
2021/08/09 05:51:48;;;;;;;7.87;3.40;;;;;;;;;;5096773;28;20457;-59
2021/08/09 05:54:15;;;;;;;3.50;2.00;;;;;;;;;;5096048;28;20442;-59
2021/08/09 05:56:43;;;;;;;3.67;3.00;;;;;;;;;;5096139;28;20458;-58
2021/08/09 05:59:10;;;;;;;3.87;3.10;;;;;;;;;;5096035;28;20446;-60
2021/08/09 06:01:37;;;;;;;2.30;2.10;;;;;;;;;;5095708;28;20503;-59
2021/08/09 06:04:04;;;;;;;8.60;2.80;;;;;;;;;;5096123;28;20504;-60
2021/08/09 06:06:32;;;;;;;2.70;2.10;;;;;;;;;;5095607;28;20478;-59
2021/08/09 06:09:00;;;;;;;2.60;2.00;;;;;;;;;;5096678;28;20423;-59
2021/08/09 06:11:27;;;;;;;4.83;1.90;;;;;;;;;;5096159;28;20446;-59
2021/08/09 06:13:55;;;;;;;2.83;2.20;;;;;;;;;;5096042;28;20438;-59
2021/08/09 06:16:22;;;;;;;2.70;2.10;;;;;;;;;;5095865;28;20458;-59
2021/08/09 06:18:50;;;;;;;5.43;2.50;;;;;;;;;;5095831;28;20480;-60
2021/08/09 06:21:17;;;;;;;4.60;2.47;;;;;;;;;;5096099;28;20515;-59
2021/08/09 06:23:45;;;;;;;3.13;2.83;;;;;;;;;;5095479;28;20987;-60
2021/08/09 06:26:13;;;;;;;3.20;2.20;;;;;;;;;;5095065;28;20470;-59
2021/08/09 06:28:41;;;;;;;3.10;2.20;;;;;;;;;;5097365;28;20474;-60
2021/08/09 06:31:08;;;;;;;3.37;2.10;;;;;;;;;;5102454;28;20439;-60
2021/08/09 06:33:35;;;;;;;3.43;2.43;;;;;;;;;;5103189;28;20495;-59
2021/08/09 06:36:03;;;;;;;6.13;2.50;;;;;;;;;;5100444;28;20495;-60
2021/08/09 06:38:30;;;;;;;3.23;2.30;;;;;;;;;;5096195;28;20802;-61
2021/08/09 06:40:57;;;;;;;3.60;2.03;;;;;;;;;;5094480;28;20447;-59
2021/08/09 06:43:26;;;;;;;3.30;1.87;;;;;;;;;;5095564;28;20521;-60
2021/08/09 06:45:53;;;;;;;3.50;2.20;;;;;;;;;;5094890;28;20956;-59
2021/08/09 06:48:20;;;;;;;2.90;2.00;;;;;;;;;;5095387;28;20482;-60
2021/08/09 06:50:47;;;;;;;3.90;2.23;;;;;;;;;;5094407;28;20449;-60
2021/08/09 06:53:15;;;;;;;3.73;1.90;;;;;;;;;;5094577;28;20439;-59
2021/08/09 06:55:42;;;;;;;3.20;2.57;;;;;;;;;;5094271;28;20446;-60
2021/08/09 06:58:09;;;;;;;5.27;3.10;;;;;;;;;;5094709;28;20535;-59
2021/08/09 07:00:38;;;;;;;5.43;2.00;;;;;;;;;;5095331;28;20784;-60
2021/08/09 07:03:08;;;;;;;6.00;2.50;;;;;;;;;;5094443;28;20447;-59
2021/08/09 07:05:42;;;;;;;3.20;2.00;;;;;;;;;;5094562;28;20546;-59
2021/08/09 07:08:09;;;;;;;4.63;2.00;;;;;;;;;;5093566;28;20539;-59
2021/08/09 07:10:36;;;;;;;2.90;2.03;;;;;;;;;;5094027;28;20446;-59
2021/08/09 07:13:04;;;;;;;2.70;2.23;;;;;;;;;;5093904;28;20451;-60
2021/08/09 07:15:31;;;;;;;5.33;2.63;;;;;;;;;;5094029;28;20454;-60
2021/08/09 07:18:00;;;;;;;4.73;2.20;;;;;;;;;;5093664;28;20458;-59
2021/08/09 07:20:27;;;;;;;2.20;1.80;;;;;;;;;;5093785;28;20575;-59
2021/08/09 07:22:54;;;;;;;3.33;1.97;;;;;;;;;;5093973;28;20500;-59
2021/08/09 07:25:22;;;;;;;3.00;2.03;;;;;;;;;;5094047;28;20446;-59
2021/08/09 07:27:49;;;;;;;3.10;2.20;;;;;;;;;;5095760;28;20474;-60
2021/08/09 07:30:17;;;;;;;3.30;2.40;;;;;;;;;;5094695;28;20846;-59
2021/08/09 07:32:45;;;;;;;2.87;2.10;;;;;;;;;;5093839;28;20446;-59
2021/08/09 07:35:14;;;;;;;4.00;2.20;;;;;;;;;;5094255;28;20499;-60
2021/08/09 07:37:41;;;;;;;5.20;2.00;;;;;;;;;;5093909;28;20513;-58
2021/08/09 07:40:09;;;;;;;5.43;2.00;;;;;;;;;;5093938;28;20450;-60
2021/08/09 07:42:36;;;;;;;5.27;2.30;;;;;;;;;;5093035;28;20941;-58
2021/08/09 07:45:04;;;;;;;2.83;2.10;;;;;;;;;;5093233;28;20442;-59
2021/08/09 07:47:31;;;;;;;3.23;2.00;;;;;;;;;;5093542;28;20474;-59
2021/08/09 07:49:58;;;;;;;4.00;1.90;;;;;;;;;;5093730;28;20455;-60
2021/08/09 07:52:27;;;;;;;3.87;1.97;;;;;;;;;;5093251;28;20444;-59
2021/08/09 07:54:55;;;;;;;3.63;1.37;;;;;;;;;;5093761;28;20442;-60
2021/08/09 07:57:22;;;;;;;2.67;1.73;;;;;;;;;;5093491;28;20467;-59
2021/08/09 07:59:50;;;;;;;2.90;1.70;;;;;;;;;;5093773;28;20513;-59
2021/08/09 08:02:17;;;;;;;3.67;1.90;;;;;;;;;;5093181;28;20548;-59
2021/08/09 08:04:44;;;;;;;3.60;2.13;;;;;;;;;;5093383;28;20474;-59
2021/08/09 08:07:11;;;;;;;6.70;1.60;;;;;;;;;;5092706;28;20533;-59
2021/08/09 08:09:40;;;;;;;3.57;2.03;;;;;;;;;;5092818;28;20446;-60
2021/08/09 08:12:07;;;;;;;3.63;2.20;;;;;;;;;;5093090;28;20449;-59
2021/08/09 08:14:35;;;;;;;3.53;1.60;;;;;;;;;;5093187;28;20510;-60
2021/08/09 08:17:02;;;;;;;5.43;1.83;;;;;;;;;;5093341;28;20577;-59
2021/08/09 08:19:29;;;;;;;4.97;2.10;;;;;;;;;;5093158;28;20875;-59
2021/08/09 08:21:57;;;;;;;2.40;1.60;;;;;;;;;;5093648;28;20453;-59
2021/08/09 08:24:24;;;;;;;7.73;2.30;;;;;;;;;;5092837;28;20446;-59
2021/08/09 08:26:53;;;;;;;4.00;1.93;;;;;;;;;;5093155;28;20476;-57
2021/08/09 08:29:20;;;;;;;3.47;1.80;;;;;;;;;;5093491;28;20484;-59
2021/08/09 08:31:47;;;;;;;3.83;1.90;;;;;;;;;;5092932;28;20932;-59
2021/08/09 08:34:14;;;;;;;7.70;1.87;;;;;;;;;;5093002;28;20449;-59
2021/08/09 08:36:42;;;;;;;2.97;1.47;;;;;;;;;;5093208;28;20461;-59
2021/08/09 08:39:10;;;;;;;5.80;1.97;;;;;;;;;;5093528;28;20631;-59
2021/08/09 08:41:41;;;;;;;3.10;1.50;;;;;;;;;;5094884;28;20540;-60
2021/08/09 08:44:10;;;;;;;4.30;1.40;;;;;;;;;;5093304;28;20436;-59
2021/08/09 08:46:39;;;;;;;3.00;1.40;;;;;;;;;;5092598;28;20473;-59
2021/08/09 08:49:08;;;;;;;5.60;2.23;;;;;;;;;;5093917;28;20569;-59
2021/08/09 08:51:37;;;;;;;3.10;1.73;;;;;;;;;;5092981;28;20449;-59
2021/08/09 08:54:04;;;;;;;3.37;1.87;;;;;;;;;;5094953;28;20477;-59
2021/08/09 08:56:32;;;;;;;3.50;2.00;;;;;;;;;;5096550;28;20469;-60
2021/08/09 08:58:59;;;;;;;3.43;1.60;;;;;;;;;;5096981;28;20442;-60
2021/08/09 09:01:37;;;;;;;3.27;2.07;;;;;;;;;;5096678;28;20452;-59
2021/08/09 09:04:20;;;;;;;3.77;1.50;;;;;;;;;;5096847;28;20456;-57
2021/08/09 09:06:47;;;;;;;3.10;1.40;;;;;;;;;;5096408;28;20503;-57
2021/08/09 09:09:21;;;;;;;3.57;1.90;;;;;;;;;;5096865;28;20534;-58
2021/08/09 09:11:48;;;;;;;5.43;2.47;;;;;;;;;;5097021;28;20431;-59
2021/08/09 09:14:15;;;;;;;2.93;1.73;;;;;;;;;;5096489;28;20481;-58
2021/08/09 09:16:47;;;;;;;5.57;1.60;;;;;;;;;;5096616;28;20507;-58
2021/08/09 09:19:29;;;;;;;4.43;1.80;;;;;;;;;;5096342;28;20444;-59
2021/08/09 09:21:56;;;;;;;3.07;1.47;;;;;;;;;;5096578;28;20438;-59
2021/08/09 09:24:25;;;;;;;7.33;2.03;;;;;;;;;;5096177;28;20453;-58
2021/08/09 09:26:54;;;;;;;5.87;1.70;;;;;;;;;;5095861;28;20469;-58
2021/08/09 09:29:22;;;;;;;2.50;1.70;;;;;;;;;;5095704;28;20488;-59
2021/08/09 09:31:51;;;;;;;4.60;1.90;;;;;;;;;;5096457;28;20443;-59
2021/08/09 09:34:18;;;;;;;5.90;1.60;;;;;;;;;;5096330;28;20450;-59
2021/08/09 09:36:50;;;;;;;3.27;1.70;;;;;;;;;;5099401;28;20466;-59
2021/08/09 09:39:27;;;;;;;3.87;1.87;;;;;;;;;;5130050;22;20423;-54
2021/08/09 09:41:55;;;;;;;2.90;1.73;;;;;;;;;;5015887;28;20484;-54
2021/08/09 09:44:23;;;;;;;2.73;2.03;;;;;;;;;;5015494;28;20797;-55
2021/08/09 09:46:52;;;;;;;3.43;1.70;;;;;;;;;;5015684;28;20458;-55
2021/08/09 09:49:34;;;;;;;4.20;2.00;;;;;;;;;;5015685;28;20545;-54
2021/08/09 09:52:02;;;;;;;4.80;1.83;;;;;;;;;;5015832;28;20499;-54
2021/08/09 09:54:29;;;;;;;5.40;2.50;;;;;;;;;;5015659;28;20453;-55
2021/08/09 09:56:56;;;;;;;2.83;2.00;;;;;;;;;;5015625;28;20875;-55
2021/08/09 09:59:24;;;;;;;4.50;2.40;;;;;;;;;;5015032;28;20519;-55
2021/08/09 10:01:53;;;;;;;2.70;1.60;;;;;;;;;;5015400;28;20449;-55
2021/08/09 10:04:20;;;;;;;6.13;2.40;;;;;;;;;;5015350;28;20454;-55
2021/08/09 10:06:48;;;;;;;2.40;2.00;;;;;;;;;;5021484;28;20802;-54
2021/08/09 10:09:16;;;;;;;4.07;2.20;;;;;;;;;;5017779;28;20536;-56
2021/08/09 10:11:43;;;;;;;4.97;2.20;;;;;;;;;;5014902;28;20449;-55
2021/08/09 10:14:11;;;;;;;3.23;1.90;;;;;;;;;;5015103;28;20461;-56
2021/08/09 10:16:39;;;;;;;4.60;2.10;;;;;;;;;;5014740;28;20515;-54
2021/08/09 10:19:08;;;;;;;3.53;2.20;;;;;;;;;;5015123;28;20482;-53
2021/08/09 10:21:37;;;;;;;6.40;2.80;;;;;;;;;;5014417;28;20457;-56
2021/08/09 10:24:05;;;;;;;5.67;2.50;;;;;;;;;;5014520;28;20444;-56
2021/08/09 10:26:49;;;;;;;4.57;2.20;;;;;;;;;;5015043;28;20540;-55
2021/08/09 10:29:17;;;;;;;4.77;1.83;;;;;;;;;;5014774;28;20486;-56
2021/08/09 10:31:48;;;;;;;3.23;1.70;;;;;;;;;;5014661;28;20898;-56
2021/08/09 10:34:38;;;;;;;7.20;2.30;;;;;;;;;;5014549;28;20871;-56
2021/08/09 10:37:08;;;;;;;6.03;2.47;;;;;;;;;;5014661;28;20499;-56
2021/08/09 10:39:52;;;;;;;4.57;2.30;;;;;;;;;;5014349;28;20488;-56
2021/08/09 10:42:32;;;;;;;4.97;2.00;;;;;;;;;;5014360;28;20439;-56
2021/08/09 10:45:00;;;;;;;4.10;2.17;;;;;;;;;;5014364;28;20489;-56
2021/08/09 10:47:52;;;;;;;3.03;1.60;;;;;;;;;;5014626;28;20446;-56
2021/08/09 10:50:40;;;;;;;5.60;2.33;;;;;;;;;;5004225;28;20501;-56
2021/08/09 10:53:33;;;;;;;3.30;2.20;;;;;;;;;;5013997;28;20533;-56
2021/08/09 10:56:00;;;;;;;4.77;2.03;;;;;;;;;;5013987;28;20450;-56
2021/08/09 10:58:46;;;;;;;2.57;1.97;;;;;;;;;;5014097;28;20441;-55
2021/08/09 11:01:14;;;;;;;3.27;1.90;;;;;;;;;;5014032;28;20561;-55
2021/08/09 11:03:56;;;;;;;4.57;2.43;;;;;;;;;;5014281;28;20511;-56
2021/08/09 11:06:38;;;;;;;4.73;2.13;;;;;;;;;;5014455;28;20437;-55
2021/08/09 11:09:20;;;;;;;3.20;2.17;;;;;;;;;;5012408;28;20473;-56
2021/08/09 11:12:06;;;;;;;5.07;2.40;;;;;;;;;;5013805;28;20930;-56
2021/08/09 11:14:54;;;;;;;2.13;1.93;;;;;;;;;;5013703;28;20441;-56
2021/08/09 11:17:21;;;;;;;2.50;2.07;;;;;;;;;;5013257;28;20852;-56
2021/08/09 11:19:49;;;;;;;3.00;2.40;;;;;;;;;;5013468;28;20881;-56
2021/08/09 11:22:18;;;;;;;2.33;1.90;;;;;;;;;;5013847;28;20449;-56
2021/08/09 11:24:45;;;;;;;4.63;2.50;;;;;;;;;;5013766;28;20492;-56
2021/08/09 11:27:13;;;;;;;4.00;2.30;;;;;;;;;;5013644;28;20810;-56
2021/08/09 11:29:54;;;;;;;3.40;2.10;;;;;;;;;;5014171;28;20539;-56
2021/08/09 11:32:40;;;;;;;3.90;2.20;;;;;;;;;;5013690;28;20518;-56
2021/08/09 11:35:08;;;;;;;3.20;2.13;;;;;;;;;;5013696;28;20551;-56
2021/08/09 11:37:53;;;;;;;3.50;1.93;;;;;;;;;;5013806;28;20452;-56
2021/08/09 11:40:34;;;;;;;3.20;1.93;;;;;;;;;;5012953;28;20551;-56
2021/08/09 11:43:01;;;;;;;2.00;1.80;;;;;;;;;;5013160;28;20816;-56
2021/08/09 11:45:30;;;;;;;2.17;1.60;;;;;;;;;;5013129;28;20452;-56
2021/08/09 11:47:57;;;;;;;2.60;1.80;;;;;;;;;;5013195;28;20450;-56
2021/08/09 11:50:24;;;;;;;2.33;1.50;;;;;;;;;;5013106;28;20484;-57
2021/08/09 11:52:52;;;;;;;3.40;1.90;;;;;;;;;;5013016;28;20505;-57
2021/08/09 11:55:23;;;;;;;2.17;1.77;;;;;;;;;;5013520;28;20455;-56
2021/08/09 11:57:50;;;;;;;2.77;1.90;;;;;;;;;;5013148;28;20437;-56
2021/08/09 12:00:18;;;;;;;5.73;2.07;;;;;;;;;;5013073;28;20462;-56
2021/08/09 12:03:03;;;;;;;3.10;2.43;;;;;;;;;;5013265;28;20508;-57
2021/08/09 12:05:32;;;;;;;3.60;2.10;;;;;;;;;;5013384;28;20507;-56
2021/08/09 12:08:03;;;;;;;2.57;2.03;;;;;;;;;;5013167;28;20446;-55
2021/08/09 12:10:30;;;;;;;3.43;1.87;;;;;;;;;;5013289;28;20501;-56
2021/08/09 12:12:58;;;;;;;3.17;2.10;;;;;;;;;;5013227;28;20442;-55
2021/08/09 12:15:25;;;;;;;6.07;2.20;;;;;;;;;;5013185;28;20789;-55
2021/08/09 12:18:08;;;;;;;6.13;2.40;;;;;;;;;;5013308;28;20507;-56
2021/08/09 12:20:37;;;;;;;4.83;2.30;;;;;;;;;;5013168;28;20465;-55
2021/08/09 12:23:05;;;;;;;6.90;3.13;;;;;;;;;;5012981;28;20447;-55
2021/08/09 12:25:36;;;;;;;2.57;2.00;;;;;;;;;;5013201;28;20944;-55
2021/08/09 12:28:04;;;;;;;4.63;2.30;;;;;;;;;;5013055;28;20972;-55
2021/08/09 12:30:32;;;;;;;5.50;2.60;;;;;;;;;;5017042;28;20489;-56
2021/08/09 12:33:00;;;;;;;4.33;2.40;;;;;;;;;;5016759;28;20443;-57
2021/08/09 12:35:34;;;;;;;4.67;3.33;;;;;;;;;;5017061;28;20934;-56
2021/08/09 12:38:03;;;;;;;5.10;2.63;;;;;;;;;;5016582;28;20428;-56
2021/08/09 12:40:39;;;;;;;6.90;3.43;;;;;;;;;;5016685;28;20650;-55
2021/08/09 12:43:08;;;;;;;4.67;2.50;;;;;;;;;;5017595;28;20466;-54
2021/08/09 12:45:35;;;;;;;4.07;2.20;;;;;;;;;;5016431;28;21008;-57
2021/08/09 12:48:03;;;;;;;4.17;2.60;;;;;;;;;;5016899;28;20472;-56
2021/08/09 12:50:30;;;;;;;3.63;2.80;;;;;;;;;;5016167;28;20993;-56
2021/08/09 12:52:57;;;;;;;6.03;3.10;;;;;;;;;;5016540;28;20445;-56
2021/08/09 12:55:26;;;;;;;5.87;2.87;;;;;;;;;;5016814;28;20516;-57
2021/08/09 12:57:53;;;;;;;4.53;2.90;;;;;;;;;;5016135;28;20511;-55
2021/08/09 13:00:21;;;;;;;4.97;2.83;;;;;;;;;;5016014;28;20478;-56
2021/08/09 13:02:48;;;;;;;3.50;2.60;;;;;;;;;;5016669;28;20510;-55
2021/08/09 13:05:16;;;;;;;5.50;3.10;;;;;;;;;;5016485;28;20510;-58
2021/08/09 13:07:43;;;;;;;3.73;3.00;;;;;;;;;;5016320;28;20794;-56
2021/08/09 13:10:11;;;;;;;6.87;3.23;;;;;;;;;;5016281;28;20971;-58
2021/08/09 13:12:40;;;;;;;5.73;2.70;;;;;;;;;;5016081;28;20446;-53
2021/08/09 13:15:08;;;;;;;7.73;3.07;;;;;;;;;;5016102;28;20492;-56
2021/08/09 13:17:36;;;;;;;6.20;3.00;;;;;;;;;;5016146;28;20860;-55
2021/08/09 13:20:04;;;;;;;2.63;2.43;;;;;;;;;;5015980;28;20515;-56
2021/08/09 13:22:32;;;;;;;5.30;3.70;;;;;;;;;;5016167;28;20477;-56
2021/08/09 13:25:01;;;;;;;3.50;3.07;;;;;;;;;;5016247;28;20450;-55
2021/08/09 13:27:29;;;;;;;3.57;2.77;;;;;;;;;;5015578;28;20458;-55
2021/08/09 13:29:59;;;;;;;2.70;2.37;;;;;;;;;;5015935;28;20486;-55
2021/08/09 13:32:26;;;;;;;7.57;2.80;;;;;;;;;;5015748;28;20455;-56
2021/08/09 13:34:53;;;;;;;3.33;2.17;;;;;;;;;;5015958;28;20532;-56
2021/08/09 13:37:20;;;;;;;3.50;2.40;;;;;;;;;;5015925;28;20447;-54
2021/08/09 13:39:49;;;;;;;4.30;2.53;;;;;;;;;;5015209;28;20481;-55
2021/08/09 13:42:16;;;;;;;3.50;2.43;;;;;;;;;;5015897;28;20540;-55
2021/08/09 13:44:43;;;;;;;3.43;2.00;;;;;;;;;;5016726;28;20457;-55
2021/08/09 13:47:13;;;;;;;4.80;2.40;;;;;;;;;;5016256;28;20929;-58
2021/08/09 13:49:40;;;;;;;4.23;2.40;;;;;;;;;;5015752;28;20513;-56
2021/08/09 13:52:08;;;;;;;3.00;1.97;;;;;;;;;;5015518;28;21011;-55
2021/08/09 13:54:35;;;;;;;2.67;1.60;;;;;;;;;;5015387;28;20450;-56
2021/08/09 13:57:02;;;;;;;3.20;1.93;;;;;;;;;;5015819;28;20453;-58
2021/08/09 13:59:30;;;;;;;3.33;2.30;;;;;;;;;;5015564;28;20818;-57
2021/08/09 14:01:57;;;;;;;10.93;9.10;;;;;;;;;;5015669;28;20497;-57
2021/08/09 14:04:27;;;;;;;4.27;2.43;;;;;;;;;;5015172;28;20878;-57
2021/08/09 14:06:54;;;;;;;4.53;2.30;;;;;;;;;;5015150;28;21001;-57
2021/08/09 14:09:21;;;;;;;3.97;1.90;;;;;;;;;;5015148;28;20457;-56
2021/08/09 14:11:49;;;;;;;3.20;2.00;;;;;;;;;;5015258;28;20516;-57
2021/08/09 14:14:16;;;;;;;14.40;10.20;;;;;;;;;;5015053;28;20875;-57
2021/08/09 14:16:43;;;;;;;5.57;2.70;;;;;;;;;;5014743;28;21023;-58
2021/08/09 14:19:10;;;;;;;5.07;2.27;;;;;;;;;;5014373;28;20938;-58
2021/08/09 14:21:39;;;;;;;3.33;2.00;;;;;;;;;;5014764;28;20507;-57
2021/08/09 14:24:07;;;;;;;7.60;2.50;;;;;;;;;;5014466;28;20510;-57
2021/08/09 14:26:35;;;;;;;4.40;2.67;;;;;;;;;;5014600;28;20506;-57
2021/08/09 14:29:02;;;;;;;5.07;2.33;;;;;;;;;;5014783;28;20467;-56
2021/08/09 14:31:30;;;;;;;6.37;2.63;;;;;;;;;;5014474;28;20544;-55
2021/08/09 14:33:57;;;;;;;2.50;2.00;;;;;;;;;;5014854;28;20442;-58
2021/08/09 14:36:24;;;;;;;3.80;1.97;;;;;;;;;;5014617;28;20524;-56
2021/08/09 14:38:53;;;;;;;4.87;2.10;;;;;;;;;;5014370;28;20952;-56
2021/08/09 14:41:20;;;;;;;6.33;2.67;;;;;;;;;;5014272;28;20469;-57
2021/08/09 14:43:47;;;;;;;2.80;2.50;;;;;;;;;;5014062;28;20852;-56
2021/08/09 14:46:14;;;;;;;3.57;2.50;;;;;;;;;;5014234;28;20446;-56
2021/08/09 14:48:42;;;;;;;4.90;2.10;;;;;;;;;;5014147;28;20506;-57
2021/08/09 14:51:09;;;;;;;5.37;2.97;;;;;;;;;;5013311;28;20980;-57
2021/08/09 14:53:37;;;;;;;3.00;2.37;;;;;;;;;;5014597;28;20843;-56
2021/08/09 14:56:06;;;;;;;3.37;2.13;;;;;;;;;;5014250;28;20443;-57